Airfield :
LOGIN :

Register | Disclaimer

   EN    FR    IT 

 










Legend :    VFR   Marginal VFR   IFR   Intensive IFR   Very Intensive IFR
Visi :
Ceiling :
>= 8 km
>= 3000ft
5 to 8 km
1000 to 3000 ft
1500m to 5 km
500 to 1000 ft
800 to 1500m
200 to 500 ft
< 800m
< 200 ft
Symbols :   Thunderstorms  Fog  Heavy snow  Heavy precipitations  Wind > 20 kt
SIGMETs :     Misc.  Thunderstorms  Icing  Turbulence  Mountain Waves  Volcanic Ashes







- Airport Elevation : 659 ft
- IATA code : LGG


EBLG - Liège

CURRENT METAR :
  • 240420Z 02006KT 7000 SCT006 BKN007 06/05 Q1028 TEMPO 5000 BR BKN005

EXPIRED METARs :
  • 240350Z 01006KT 330V030 7000 SCT005 BKN007 07/06 Q1028 TEMPO 5000 BR BKN005
  • 240320Z 02007KT 7000 SCT007 BKN010 07/06 Q1028 TEMPO 5000 BR BKN005
  • 240250Z 01007KT 6000 SCT008 BKN010 07/06 Q1028 TEMPO 5000 BR BKN005
  • 240220Z 03007KT 5000 BR SCT006 BKN007 08/06 Q1028 TEMPO BKN005
  • 240150Z 01007KT 5000 BR SCT005 BKN006 08/07 Q1028 TEMPO BKN005

TAF TAF EBLG
Valid from the 24 at 00:00 until the 25 at 06:00 UTC


232315Z 2400/2506 04005KT 3000 BR BKN006
PROB40
TEMPO 2400/2409 2000 -DZ
PROB30
TEMPO 2402/2408 0300 FG BKN001
BECMG 2409/2411 7000 NSW FEW012 SCT025
BECMG 2502/2504 29010KT
PROB30
TEMPO 2504/2506 SHRA
No reported NOTAMs for that airfield.



MET'MAP, your aeronautical weather chart ! - Copyright ORBIFLY December 2007 - Disclaimer

ORBIFLY MET'MAP TEAM :

Programming & Development : Alexandra Zaïnal
Concept & Development : Baudouin d'Aumeries
Co-Development & Prog : Marc-Olivier Méhu
Technical & hardware support : Manuel Goepfert

Contact : metmap@orbifly.com




SOURCES & CREDITS :

   NOAA